sensor_id;sensor_type;location;lat;lon;timestamp;pressure;altitude;pressure_sealevel;temperature;humidity
72942;BME280;69665;55.822;37.330;2023-05-21T00:00:25;100184.06;;;11.40;54.65
72942;BME280;69665;55.822;37.330;2023-05-21T00:02:51;100152.72;;;11.31;55.27
72942;BME280;69665;55.822;37.330;2023-05-21T00:05:16;100185.31;;;11.55;55.26
72942;BME280;69665;55.822;37.330;2023-05-21T00:07:43;100181.69;;;11.59;55.00
72942;BME280;69665;55.822;37.330;2023-05-21T00:10:09;100184.75;;;11.72;56.43
72942;BME280;69665;55.822;37.330;2023-05-21T00:12:34;100172.75;;;11.63;51.33
72942;BME280;69665;55.822;37.330;2023-05-21T00:15:00;100177.06;;;11.66;55.26
72942;BME280;69665;55.822;37.330;2023-05-21T00:17:26;100171.44;;;11.76;55.74
72942;BME280;69665;55.822;37.330;2023-05-21T00:19:53;100173.78;;;11.85;55.40
72942;BME280;69665;55.822;37.330;2023-05-21T00:22:18;100171.09;;;11.87;56.07
72942;BME280;69665;55.822;37.330;2023-05-21T00:24:44;100163.91;;;11.91;54.97
72942;BME280;69665;55.822;37.330;2023-05-21T00:27:11;100163.13;;;11.88;54.72
72942;BME280;69665;55.822;37.330;2023-05-21T00:29:37;100172.84;;;11.86;55.98
72942;BME280;69665;55.822;37.330;2023-05-21T00:32:03;100173.66;;;11.88;52.59
72942;BME280;69665;55.822;37.330;2023-05-21T00:34:29;100153.84;;;11.75;51.91
72942;BME280;69665;55.822;37.330;2023-05-21T00:36:54;100162.09;;;11.66;54.45
72942;BME280;69665;55.822;37.330;2023-05-21T00:39:20;100163.69;;;11.70;55.01
72942;BME280;69665;55.822;37.330;2023-05-21T00:41:46;100158.25;;;11.76;54.40
72942;BME280;69665;55.822;37.330;2023-05-21T00:44:13;100166.06;;;11.79;53.14
72942;BME280;69665;55.822;37.330;2023-05-21T00:46:41;100150.69;;;11.66;52.04
72942;BME280;69665;55.822;37.330;2023-05-21T00:49:11;100170.44;;;11.80;51.08
72942;BME280;69665;55.822;37.330;2023-05-21T00:51:39;100160.88;;;11.76;54.41
72942;BME280;69665;55.822;37.330;2023-05-21T00:54:08;100159.13;;;11.75;54.19
72942;BME280;69665;55.822;37.330;2023-05-21T00:56:35;100152.28;;;11.70;54.69
72942;BME280;69665;55.822;37.330;2023-05-21T00:59:01;100161.66;;;11.80;55.65
72942;BME280;69665;55.822;37.330;2023-05-21T01:01:31;100157.22;;;11.80;55.46
72942;BME280;69665;55.822;37.330;2023-05-21T01:04:01;100140.19;;;11.64;53.86
72942;BME280;69665;55.822;37.330;2023-05-21T01:06:27;100156.63;;;11.71;53.42
72942;BME280;69665;55.822;37.330;2023-05-21T01:08:54;100168.81;;;11.75;55.91
72942;BME280;69665;55.822;37.330;2023-05-21T01:11:32;100142.94;;;11.61;56.20
72942;BME280;69665;55.822;37.330;2023-05-21T01:14:01;100147.19;;;11.65;53.28
72942;BME280;69665;55.822;37.330;2023-05-21T01:16:28;100155.63;;;11.75;56.90
72942;BME280;69665;55.822;37.330;2023-05-21T01:18:54;100171.19;;;11.84;56.18
72942;BME280;69665;55.822;37.330;2023-05-21T01:21:21;100166.56;;;11.91;55.95
72942;BME280;69665;55.822;37.330;2023-05-21T01:23:49;100171.78;;;11.92;59.29
72942;BME280;69665;55.822;37.330;2023-05-21T01:26:15;100160.56;;;11.85;56.89
72942;BME280;69665;55.822;37.330;2023-05-21T01:28:40;100166.22;;;12.00;54.52
72942;BME280;69665;55.822;37.330;2023-05-21T01:31:18;100163.56;;;12.00;56.84
72942;BME280;69665;55.822;37.330;2023-05-21T01:33:48;100154.75;;;12.01;55.74
72942;BME280;69665;55.822;37.330;2023-05-21T01:36:23;100163.47;;;12.03;55.25
72942;BME280;69665;55.822;37.330;2023-05-21T01:39:01;100154.19;;;11.93;55.18
72942;BME280;69665;55.822;37.330;2023-05-21T01:41:35;100170.44;;;12.05;51.66
72942;BME280;69665;55.822;37.330;2023-05-21T01:44:02;100152.16;;;11.99;52.94
72942;BME280;69665;55.822;37.330;2023-05-21T01:46:29;100169.28;;;12.12;52.62
72942;BME280;69665;55.822;37.330;2023-05-21T01:48:57;100166.50;;;12.17;53.54
72942;BME280;69665;55.822;37.330;2023-05-21T01:51:24;100162.84;;;12.21;54.76
72942;BME280;69665;55.822;37.330;2023-05-21T01:53:50;100165.00;;;12.33;53.80
72942;BME280;69665;55.822;37.330;2023-05-21T01:56:16;100165.13;;;12.30;53.38
72942;BME280;69665;55.822;37.330;2023-05-21T01:58:41;100158.81;;;12.34;54.38
72942;BME280;69665;55.822;37.330;2023-05-21T02:01:08;100169.91;;;12.44;53.61
72942;BME280;69665;55.822;37.330;2023-05-21T02:03:34;100158.75;;;12.36;52.44
72942;BME280;69665;55.822;37.330;2023-05-21T02:05:59;100157.09;;;12.33;52.01
72942;BME280;69665;55.822;37.330;2023-05-21T02:08:25;100155.41;;;12.31;50.74
72942;BME280;69665;55.822;37.330;2023-05-21T02:10:53;100171.00;;;12.38;50.90
72942;BME280;69665;55.822;37.330;2023-05-21T02:13:19;100160.47;;;12.37;47.93
72942;BME280;69665;55.822;37.330;2023-05-21T02:15:45;100155.31;;;12.34;50.90
72942;BME280;69665;55.822;37.330;2023-05-21T02:18:11;100161.34;;;12.37;52.38
72942;BME280;69665;55.822;37.330;2023-05-21T02:21:00;100154.88;;;12.46;53.79
72942;BME280;69665;55.822;37.330;2023-05-21T02:23:26;100146.75;;;12.50;52.23
72942;BME280;69665;55.822;37.330;2023-05-21T02:25:52;100144.72;;;12.57;53.83
72942;BME280;69665;55.822;37.330;2023-05-21T02:28:17;100148.72;;;12.69;50.61
72942;BME280;69665;55.822;37.330;2023-05-21T02:30:43;100151.94;;;12.75;52.93
72942;BME280;69665;55.822;37.330;2023-05-21T02:33:08;100150.31;;;12.73;50.42
72942;BME280;69665;55.822;37.330;2023-05-21T02:35:38;100144.34;;;12.68;50.72
72942;BME280;69665;55.822;37.330;2023-05-21T02:38:04;100139.06;;;12.68;49.70
72942;BME280;69665;55.822;37.330;2023-05-21T02:40:29;100152.25;;;12.68;50.50
72942;BME280;69665;55.822;37.330;2023-05-21T02:42:57;100149.56;;;12.69;51.20
72942;BME280;69665;55.822;37.330;2023-05-21T02:45:22;100151.78;;;12.80;50.33
72942;BME280;69665;55.822;37.330;2023-05-21T02:47:48;100148.91;;;12.86;52.76
72942;BME280;69665;55.822;37.330;2023-05-21T02:50:17;100152.81;;;12.99;52.89
72942;BME280;69665;55.822;37.330;2023-05-21T02:52:48;100157.69;;;13.08;52.73
72942;BME280;69665;55.822;37.330;2023-05-21T02:55:14;100146.13;;;13.11;52.74
72942;BME280;69665;55.822;37.330;2023-05-21T02:57:39;100151.22;;;13.17;52.12
72942;BME280;69665;55.822;37.330;2023-05-21T03:00:06;100136.44;;;13.11;53.01
72942;BME280;69665;55.822;37.330;2023-05-21T03:02:33;100155.19;;;13.27;52.77
72942;BME280;69665;55.822;37.330;2023-05-21T03:04:58;100161.09;;;13.34;53.25
72942;BME280;69665;55.822;37.330;2023-05-21T03:07:25;100154.47;;;13.45;52.71
72942;BME280;69665;55.822;37.330;2023-05-21T03:09:50;100159.22;;;13.57;52.90
72942;BME280;69665;55.822;37.330;2023-05-21T03:12:16;100149.25;;;13.64;52.79
72942;BME280;69665;55.822;37.330;2023-05-21T03:14:41;100158.00;;;13.66;51.79
72942;BME280;69665;55.822;37.330;2023-05-21T03:17:08;100151.34;;;13.56;52.12
72942;BME280;69665;55.822;37.330;2023-05-21T03:19:40;100154.13;;;13.53;51.42
72942;BME280;69665;55.822;37.330;2023-05-21T03:22:09;100154.47;;;13.45;51.72
72942;BME280;69665;55.822;37.330;2023-05-21T03:24:38;100160.84;;;13.40;53.15
72942;BME280;69665;55.822;37.330;2023-05-21T03:27:08;100160.13;;;13.36;53.08
72942;BME280;69665;55.822;37.330;2023-05-21T03:29:33;100161.91;;;13.36;53.01
72942;BME280;69665;55.822;37.330;2023-05-21T03:32:01;100159.44;;;13.31;52.70
72942;BME280;69665;55.822;37.330;2023-05-21T03:34:26;100151.44;;;13.33;53.14
72942;BME280;69665;55.822;37.330;2023-05-21T03:36:52;100164.38;;;13.40;51.19
72942;BME280;69665;55.822;37.330;2023-05-21T03:39:19;100152.50;;;13.29;50.97
72942;BME280;69665;55.822;37.330;2023-05-21T03:41:45;100158.41;;;13.35;52.33
72942;BME280;69665;55.822;37.330;2023-05-21T03:44:34;100153.03;;;13.37;52.49
72942;BME280;69665;55.822;37.330;2023-05-21T03:47:15;100169.00;;;13.55;51.52
72942;BME280;69665;55.822;37.330;2023-05-21T03:49:41;100168.88;;;13.58;49.80
72942;BME280;69665;55.822;37.330;2023-05-21T03:52:07;100171.72;;;13.54;49.69
72942;BME280;69665;55.822;37.330;2023-05-21T03:54:33;100168.28;;;13.52;50.84
72942;BME280;69665;55.822;37.330;2023-05-21T03:57:02;100168.69;;;13.63;52.81
72942;BME280;69665;55.822;37.330;2023-05-21T03:59:28;100147.66;;;13.60;51.77
72942;BME280;69665;55.822;37.330;2023-05-21T04:01:54;100167.91;;;13.61;51.31
72942;BME280;69665;55.822;37.330;2023-05-21T04:04:20;100152.41;;;13.52;48.11
72942;BME280;69665;55.822;37.330;2023-05-21T04:06:45;100174.19;;;13.58;49.75
72942;BME280;69665;55.822;37.330;2023-05-21T04:09:12;100175.91;;;13.59;51.50
72942;BME280;69665;55.822;37.330;2023-05-21T04:11:38;100143.88;;;13.45;51.17
72942;BME280;69665;55.822;37.330;2023-05-21T04:14:04;100153.13;;;13.55;51.53
72942;BME280;69665;55.822;37.330;2023-05-21T04:16:29;100174.78;;;13.65;50.46
72942;BME280;69665;55.822;37.330;2023-05-21T04:18:55;100174.53;;;13.71;50.38
72942;BME280;69665;55.822;37.330;2023-05-21T04:21:22;100163.94;;;13.71;49.36
72942;BME280;69665;55.822;37.330;2023-05-21T04:23:48;100154.81;;;13.78;49.90
72942;BME280;69665;55.822;37.330;2023-05-21T04:26:28;100144.56;;;13.91;50.71
72942;BME280;69665;55.822;37.330;2023-05-21T04:28:58;100163.66;;;14.18;50.69
72942;BME280;69665;55.822;37.330;2023-05-21T04:31:29;100149.84;;;14.30;50.34
72942;BME280;69665;55.822;37.330;2023-05-21T04:33:55;100160.00;;;14.41;50.99
72942;BME280;69665;55.822;37.330;2023-05-21T04:36:21;100161.75;;;14.42;49.53
72942;BME280;69665;55.822;37.330;2023-05-21T04:38:47;100154.94;;;14.35;48.54
72942;BME280;69665;55.822;37.330;2023-05-21T04:41:13;100154.72;;;14.41;48.66
72942;BME280;69665;55.822;37.330;2023-05-21T04:43:39;100160.91;;;14.40;47.56
72942;BME280;69665;55.822;37.330;2023-05-21T04:46:09;100141.41;;;14.42;47.99
72942;BME280;69665;55.822;37.330;2023-05-21T04:48:35;100143.63;;;14.51;49.66
72942;BME280;69665;55.822;37.330;2023-05-21T04:51:01;100144.69;;;14.47;48.64
72942;BME280;69665;55.822;37.330;2023-05-21T04:53:30;100149.56;;;14.56;46.22
72942;BME280;69665;55.822;37.330;2023-05-21T04:55:56;100152.59;;;14.68;47.54
72942;BME280;69665;55.822;37.330;2023-05-21T04:58:23;100160.81;;;14.99;47.90
72942;BME280;69665;55.822;37.330;2023-05-21T05:00:49;100139.38;;;15.04;46.17
72942;BME280;69665;55.822;37.330;2023-05-21T05:03:16;100156.03;;;15.24;46.64
72942;BME280;69665;55.822;37.330;2023-05-21T05:05:42;100152.78;;;15.37;46.79
72942;BME280;69665;55.822;37.330;2023-05-21T05:08:08;100147.97;;;15.62;45.65
72942;BME280;69665;55.822;37.330;2023-05-21T05:10:34;100138.53;;;16.08;47.21
72942;BME280;69665;55.822;37.330;2023-05-21T05:13:00;100147.06;;;17.26;43.92
72942;BME280;69665;55.822;37.330;2023-05-21T05:15:27;100131.09;;;19.27;41.31
72942;BME280;69665;55.822;37.330;2023-05-21T05:17:53;100153.00;;;21.48;38.32
72942;BME280;69665;55.822;37.330;2023-05-21T05:20:19;100136.47;;;23.34;37.11
72942;BME280;69665;55.822;37.330;2023-05-21T05:22:44;100142.84;;;26.52;32.78
72942;BME280;69665;55.822;37.330;2023-05-21T05:25:11;100123.75;;;28.67;29.79
72942;BME280;69665;55.822;37.330;2023-05-21T05:27:37;100143.28;;;30.03;29.92
72942;BME280;69665;55.822;37.330;2023-05-21T05:30:03;100136.91;;;30.44;28.76
72942;BME280;69665;55.822;37.330;2023-05-21T05:32:30;100149.03;;;29.76;28.20
72942;BME280;69665;55.822;37.330;2023-05-21T05:34:56;100165.72;;;29.31;27.03
72942;BME280;69665;55.822;37.330;2023-05-21T05:37:22;100162.44;;;28.43;29.01
72942;BME280;69665;55.822;37.330;2023-05-21T05:39:48;100177.06;;;25.76;30.55
72942;BME280;69665;55.822;37.330;2023-05-21T05:42:13;100176.00;;;23.54;32.51
72942;BME280;69665;55.822;37.330;2023-05-21T05:44:39;100170.31;;;21.90;33.88
72942;BME280;69665;55.822;37.330;2023-05-21T05:47:09;100166.22;;;20.52;35.62
72942;BME280;69665;55.822;37.330;2023-05-21T05:49:37;100186.34;;;19.80;36.29
72942;BME280;69665;55.822;37.330;2023-05-21T05:52:02;100172.88;;;19.28;36.74
72942;BME280;69665;55.822;37.330;2023-05-21T05:54:28;100185.06;;;21.84;34.53
72942;BME280;69665;55.822;37.330;2023-05-21T05:56:55;100180.81;;;21.82;34.46
72942;BME280;69665;55.822;37.330;2023-05-21T05:59:22;100175.97;;;22.44;33.66
72942;BME280;69665;55.822;37.330;2023-05-21T06:01:49;100191.72;;;21.44;34.27
72942;BME280;69665;55.822;37.330;2023-05-21T06:04:15;100178.25;;;20.07;34.68
72942;BME280;69665;55.822;37.330;2023-05-21T06:06:40;100174.75;;;18.99;36.13
72942;BME280;69665;55.822;37.330;2023-05-21T06:09:07;100169.34;;;18.15;36.83
72942;BME280;69665;55.822;37.330;2023-05-21T06:11:33;100183.59;;;17.54;37.87
72942;BME280;69665;55.822;37.330;2023-05-21T06:13:58;100186.75;;;17.00;38.32
72942;BME280;69665;55.822;37.330;2023-05-21T06:16:27;100165.75;;;16.62;39.65
72942;BME280;69665;55.822;37.330;2023-05-21T06:18:53;100197.34;;;16.35;39.50
72942;BME280;69665;55.822;37.330;2023-05-21T06:21:18;100195.84;;;16.12;40.01
72942;BME280;69665;55.822;37.330;2023-05-21T06:23:45;100200.81;;;16.03;41.33
72942;BME280;69665;55.822;37.330;2023-05-21T06:26:10;100200.03;;;16.01;42.50
72942;BME280;69665;55.822;37.330;2023-05-21T06:28:36;100213.53;;;15.96;40.14
72942;BME280;69665;55.822;37.330;2023-05-21T06:31:03;100178.44;;;15.89;39.15
72942;BME280;69665;55.822;37.330;2023-05-21T06:33:30;100196.50;;;16.00;40.10
72942;BME280;69665;55.822;37.330;2023-05-21T06:35:57;100206.75;;;16.08;40.74
72942;BME280;69665;55.822;37.330;2023-05-21T06:38:23;100190.66;;;15.93;39.85
72942;BME280;69665;55.822;37.330;2023-05-21T06:40:48;100197.53;;;15.98;40.85
72942;BME280;69665;55.822;37.330;2023-05-21T06:43:26;100190.72;;;15.92;40.68
72942;BME280;69665;55.822;37.330;2023-05-21T06:46:19;100198.91;;;15.87;40.46
72942;BME280;69665;55.822;37.330;2023-05-21T06:48:45;100200.25;;;15.96;41.78
72942;BME280;69665;55.822;37.330;2023-05-21T06:51:11;100205.47;;;16.15;41.12
72942;BME280;69665;55.822;37.330;2023-05-21T06:53:37;100183.47;;;16.46;39.58
72942;BME280;69665;55.822;37.330;2023-05-21T06:56:03;100181.75;;;17.41;38.94
72942;BME280;69665;55.822;37.330;2023-05-21T06:58:40;100169.13;;;19.72;37.03
72942;BME280;69665;55.822;37.330;2023-05-21T07:01:06;100158.28;;;20.25;36.60
72942;BME280;69665;55.822;37.330;2023-05-21T07:03:31;100175.03;;;24.29;32.99
72942;BME280;69665;55.822;37.330;2023-05-21T07:05:57;100176.53;;;27.85;29.17
72942;BME280;69665;55.822;37.330;2023-05-21T07:08:23;100172.44;;;30.26;26.10
72942;BME280;69665;55.822;37.330;2023-05-21T07:10:49;100177.09;;;29.34;27.43
72942;BME280;69665;55.822;37.330;2023-05-21T07:13:15;100181.25;;;29.13;26.76
72942;BME280;69665;55.822;37.330;2023-05-21T07:15:41;100188.97;;;28.83;26.88
72942;BME280;69665;55.822;37.330;2023-05-21T07:18:07;100184.47;;;28.74;27.15
72942;BME280;69665;55.822;37.330;2023-05-21T07:20:33;100197.59;;;28.61;26.82
72942;BME280;69665;55.822;37.330;2023-05-21T07:23:03;100192.50;;;26.98;27.87
72942;BME280;69665;55.822;37.330;2023-05-21T07:25:29;100188.41;;;25.41;28.81
72942;BME280;69665;55.822;37.330;2023-05-21T07:27:55;100188.19;;;25.14;29.56
72942;BME280;69665;55.822;37.330;2023-05-21T07:30:21;100191.63;;;24.55;30.05
72942;BME280;69665;55.822;37.330;2023-05-21T07:32:46;100174.91;;;23.57;30.44
72942;BME280;69665;55.822;37.330;2023-05-21T07:35:12;100196.22;;;23.69;30.64
72942;BME280;69665;55.822;37.330;2023-05-21T07:37:38;100186.31;;;25.83;28.82
72942;BME280;69665;55.822;37.330;2023-05-21T07:40:05;100191.53;;;26.43;28.33
72942;BME280;69665;55.822;37.330;2023-05-21T07:42:33;100186.75;;;27.74;27.37
72942;BME280;69665;55.822;37.330;2023-05-21T07:45:00;100192.81;;;29.81;25.57
72942;BME280;69665;55.822;37.330;2023-05-21T07:47:26;100170.97;;;31.26;25.18
72942;BME280;69665;55.822;37.330;2023-05-21T07:49:52;100165.72;;;29.31;25.55
72942;BME280;69665;55.822;37.330;2023-05-21T07:52:18;100171.28;;;26.93;27.49
72942;BME280;69665;55.822;37.330;2023-05-21T07:54:43;100180.78;;;24.76;29.11
72942;BME280;69665;55.822;37.330;2023-05-21T07:57:09;100180.19;;;23.36;30.34
72942;BME280;69665;55.822;37.330;2023-05-21T07:59:49;100195.59;;;22.45;31.27
72942;BME280;69665;55.822;37.330;2023-05-21T08:02:15;100180.81;;;21.93;31.32
72942;BME280;69665;55.822;37.330;2023-05-21T08:04:41;100187.75;;;21.60;31.83
72942;BME280;69665;55.822;37.330;2023-05-21T08:07:08;100186.22;;;21.21;32.35
72942;BME280;69665;55.822;37.330;2023-05-21T08:09:35;100192.00;;;20.53;32.75
72942;BME280;69665;55.822;37.330;2023-05-21T08:12:00;100152.53;;;19.67;33.42
72942;BME280;69665;55.822;37.330;2023-05-21T08:14:26;100179.47;;;19.49;33.58
72942;BME280;69665;55.822;37.330;2023-05-21T08:16:52;100194.34;;;19.26;33.80
72942;BME280;69665;55.822;37.330;2023-05-21T08:19:19;100202.78;;;19.20;33.81
72942;BME280;69665;55.822;37.330;2023-05-21T08:21:44;100182.38;;;19.19;33.17
72942;BME280;69665;55.822;37.330;2023-05-21T08:24:10;100180.66;;;19.45;33.92
72942;BME280;69665;55.822;37.330;2023-05-21T08:26:36;100170.22;;;20.07;33.53
72942;BME280;69665;55.822;37.330;2023-05-21T08:29:02;100184.09;;;20.52;33.17
72942;BME280;69665;55.822;37.330;2023-05-21T08:31:28;100179.84;;;20.98;32.73
72942;BME280;69665;55.822;37.330;2023-05-21T08:33:54;100179.19;;;24.22;30.22
72942;BME280;69665;55.822;37.330;2023-05-21T08:36:31;100174.13;;;25.10;28.77
72942;BME280;69665;55.822;37.330;2023-05-21T08:39:02;100148.28;;;26.80;28.06
72942;BME280;69665;55.822;37.330;2023-05-21T08:41:41;100175.53;;;25.93;27.94
72942;BME280;69665;55.822;37.330;2023-05-21T08:44:14;100190.03;;;24.83;28.93
72942;BME280;69665;55.822;37.330;2023-05-21T08:46:40;100166.13;;;24.17;28.89
72942;BME280;69665;55.822;37.330;2023-05-21T08:49:11;100182.13;;;22.80;30.30
72942;BME280;69665;55.822;37.330;2023-05-21T08:51:37;100192.88;;;21.87;31.00
72942;BME280;69665;55.822;37.330;2023-05-21T08:54:04;100201.25;;;20.98;31.83
72942;BME280;69665;55.822;37.330;2023-05-21T08:56:30;100184.38;;;20.22;32.82
72942;BME280;69665;55.822;37.330;2023-05-21T08:58:57;100174.78;;;19.67;33.29
72942;BME280;69665;55.822;37.330;2023-05-21T09:01:26;100182.53;;;19.57;33.63
72942;BME280;69665;55.822;37.330;2023-05-21T09:04:00;100181.19;;;19.77;33.14
72942;BME280;69665;55.822;37.330;2023-05-21T09:06:27;100169.13;;;22.29;31.14
72942;BME280;69665;55.822;37.330;2023-05-21T09:09:03;100155.41;;;21.75;31.61
72942;BME280;69665;55.822;37.330;2023-05-21T09:11:40;100176.94;;;21.02;31.99
72942;BME280;69665;55.822;37.330;2023-05-21T09:14:10;100157.00;;;20.44;33.03
72942;BME280;69665;55.822;37.330;2023-05-21T09:17:08;100170.38;;;20.56;32.73
72942;BME280;69665;55.822;37.330;2023-05-21T09:19:34;100181.72;;;20.73;32.79
72942;BME280;69665;55.822;37.330;2023-05-21T09:22:01;100177.00;;;20.63;32.46
72942;BME280;69665;55.822;37.330;2023-05-21T09:24:34;100177.22;;;21.10;31.42
72942;BME280;69665;55.822;37.330;2023-05-21T09:27:00;100195.31;;;20.57;31.85
72942;BME280;69665;55.822;37.330;2023-05-21T09:29:26;100186.38;;;20.06;32.03
72942;BME280;69665;55.822;37.330;2023-05-21T09:31:52;100189.41;;;19.61;32.61
72942;BME280;69665;55.822;37.330;2023-05-21T09:34:19;100171.81;;;19.30;32.80
72942;BME280;69665;55.822;37.330;2023-05-21T09:36:48;100154.44;;;19.11;32.93
72942;BME280;69665;55.822;37.330;2023-05-21T09:39:34;100185.53;;;19.12;34.47
72942;BME280;69665;55.822;37.330;2023-05-21T09:42:02;100173.66;;;18.89;33.38
72942;BME280;69665;55.822;37.330;2023-05-21T09:44:28;100203.22;;;18.86;33.73
72942;BME280;69665;55.822;37.330;2023-05-21T09:46:56;100190.72;;;18.72;33.56
72942;BME280;69665;55.822;37.330;2023-05-21T09:49:23;100165.38;;;18.37;33.30
72942;BME280;69665;55.822;37.330;2023-05-21T09:51:58;100181.91;;;18.27;33.99
72942;BME280;69665;55.822;37.330;2023-05-21T09:54:24;100201.25;;;18.31;34.74
72942;BME280;69665;55.822;37.330;2023-05-21T09:56:51;100187.94;;;18.31;34.10
72942;BME280;69665;55.822;37.330;2023-05-21T09:59:18;100180.97;;;18.14;33.94
72942;BME280;69665;55.822;37.330;2023-05-21T10:01:44;100191.03;;;18.09;34.49
72942;BME280;69665;55.822;37.330;2023-05-21T10:04:10;100177.09;;;17.90;34.18
72942;BME280;69665;55.822;37.330;2023-05-21T10:06:41;100193.19;;;17.88;34.56
72942;BME280;69665;55.822;37.330;2023-05-21T10:09:10;100184.41;;;17.86;34.24
72942;BME280;69665;55.822;37.330;2023-05-21T10:11:38;100190.81;;;17.98;35.37
72942;BME280;69665;55.822;37.330;2023-05-21T10:14:18;100186.56;;;18.10;34.13
72942;BME280;69665;55.822;37.330;2023-05-21T10:16:46;100188.78;;;18.17;34.91
72942;BME280;69665;55.822;37.330;2023-05-21T10:19:13;100194.13;;;18.46;33.84
72942;BME280;69665;55.822;37.330;2023-05-21T10:21:40;100165.97;;;18.70;33.96
72942;BME280;69665;55.822;37.330;2023-05-21T10:24:09;100164.44;;;19.21;33.88
72942;BME280;69665;55.822;37.330;2023-05-21T10:26:36;100190.94;;;19.78;33.08
72942;BME280;69665;55.822;37.330;2023-05-21T10:29:02;100188.53;;;20.13;32.63
72942;BME280;69665;55.822;37.330;2023-05-21T10:31:28;100169.41;;;20.57;32.43
72942;BME280;69665;55.822;37.330;2023-05-21T10:33:54;100177.75;;;21.15;32.30
72942;BME280;69665;55.822;37.330;2023-05-21T10:36:20;100182.47;;;21.48;32.13
72942;BME280;69665;55.822;37.330;2023-05-21T10:38:48;100139.38;;;21.51;31.58
72942;BME280;69665;55.822;37.330;2023-05-21T10:41:14;100144.97;;;21.48;31.69
72942;BME280;69665;55.822;37.330;2023-05-21T10:44:09;100179.91;;;21.46;31.48
72942;BME280;69665;55.822;37.330;2023-05-21T10:59:42;100174.16;;;21.03;31.38
72942;BME280;69665;55.822;37.330;2023-05-21T11:02:11;100174.25;;;21.02;31.35
72942;BME280;69665;55.822;37.330;2023-05-21T11:04:39;100184.06;;;21.14;31.45
72942;BME280;69665;55.822;37.330;2023-05-21T11:07:07;100176.16;;;21.25;31.60
72942;BME280;69665;55.822;37.330;2023-05-21T11:09:33;100193.25;;;21.35;30.84
72942;BME280;69665;55.822;37.330;2023-05-21T11:11:59;100164.47;;;21.26;31.22
72942;BME280;69665;55.822;37.330;2023-05-21T11:14:38;100181.63;;;21.47;31.04
72942;BME280;69665;55.822;37.330;2023-05-21T11:17:38;100182.88;;;21.30;31.31
72942;BME280;69665;55.822;37.330;2023-05-21T11:20:12;100163.59;;;21.13;31.49
72942;BME280;69665;55.822;37.330;2023-05-21T11:22:41;100173.59;;;21.23;31.43
72942;BME280;69665;55.822;37.330;2023-05-21T11:25:07;100188.13;;;21.19;30.80
72942;BME280;69665;55.822;37.330;2023-05-21T11:29:58;100170.72;;;21.01;30.95
72942;BME280;69665;55.822;37.330;2023-05-21T11:32:25;100178.47;;;20.93;30.91
72942;BME280;69665;55.822;37.330;2023-05-21T11:34:50;100172.72;;;20.74;31.11
72942;BME280;69665;55.822;37.330;2023-05-21T11:39:48;100167.16;;;20.64;31.31
72942;BME280;69665;55.822;37.330;2023-05-21T11:42:33;100176.19;;;20.50;31.87
72942;BME280;69665;55.822;37.330;2023-05-21T11:45:01;100163.13;;;20.46;31.57
72942;BME280;69665;55.822;37.330;2023-05-21T11:47:30;100159.88;;;20.53;31.72
72942;BME280;69665;55.822;37.330;2023-05-21T11:49:58;100170.47;;;20.67;31.65
72942;BME280;69665;55.822;37.330;2023-05-21T11:52:24;100155.69;;;20.62;31.47
72942;BME280;69665;55.822;37.330;2023-05-21T11:54:53;100178.81;;;20.76;31.50
72942;BME280;69665;55.822;37.330;2023-05-21T11:57:28;100152.16;;;20.74;31.69
72942;BME280;69665;55.822;37.330;2023-05-21T11:59:58;100174.72;;;20.95;31.23
72942;BME280;69665;55.822;37.330;2023-05-21T12:02:25;100173.66;;;20.85;30.93
72942;BME280;69665;55.822;37.330;2023-05-21T12:04:54;100190.28;;;20.65;30.71
72942;BME280;69665;55.822;37.330;2023-05-21T12:07:26;100180.75;;;20.23;30.95
72942;BME280;69665;55.822;37.330;2023-05-21T12:09:53;100183.06;;;20.02;31.20
72942;BME280;69665;55.822;37.330;2023-05-21T12:12:23;100182.09;;;19.90;31.42
72942;BME280;69665;55.822;37.330;2023-05-21T12:14:49;100185.06;;;19.86;31.13
72942;BME280;69665;55.822;37.330;2023-05-21T12:17:19;100191.13;;;19.75;31.76
72942;BME280;69665;55.822;37.330;2023-05-21T12:19:46;100184.31;;;19.71;31.53
72942;BME280;69665;55.822;37.330;2023-05-21T12:22:12;100204.09;;;19.81;31.70
72942;BME280;69665;55.822;37.330;2023-05-21T12:24:39;100204.44;;;19.89;31.90
72942;BME280;69665;55.822;37.330;2023-05-21T12:27:06;100196.31;;;19.91;32.00
72942;BME280;69665;55.822;37.330;2023-05-21T12:29:36;100195.88;;;19.84;32.13
72942;BME280;69665;55.822;37.330;2023-05-21T12:32:04;100193.50;;;19.80;32.73
72942;BME280;69665;55.822;37.330;2023-05-21T12:37:13;100209.50;;;19.67;32.49
72942;BME280;69665;55.822;37.330;2023-05-21T12:39:44;100191.00;;;19.64;33.17
72942;BME280;69665;55.822;37.330;2023-05-21T12:42:10;100207.72;;;19.80;33.11
72942;BME280;69665;55.822;37.330;2023-05-21T12:44:38;100203.78;;;19.86;33.34
72942;BME280;69665;55.822;37.330;2023-05-21T12:47:03;100196.66;;;19.99;33.18
72942;BME280;69665;55.822;37.330;2023-05-21T12:49:37;100182.66;;;20.08;34.21
72942;BME280;69665;55.822;37.330;2023-05-21T12:52:14;100174.75;;;20.19;34.08
72942;BME280;69665;55.822;37.330;2023-05-21T12:54:42;100198.44;;;20.51;33.31
72942;BME280;69665;55.822;37.330;2023-05-21T12:57:20;100200.66;;;20.70;33.32
72942;BME280;69665;55.822;37.330;2023-05-21T12:59:57;100192.00;;;20.41;33.30
72942;BME280;69665;55.822;37.330;2023-05-21T13:02:39;100189.28;;;20.28;33.29
72942;BME280;69665;55.822;37.330;2023-05-21T13:05:10;100180.19;;;20.05;33.38